Asiatic Wave — 9V8790 — position and weather

sailwx.info

Track history (hours):
 
Tides and Currents Weather Stations Pressure Air Temp Water Temp Dewpoint Dewpoint Depression Visibility Wind Speed Wind Dir Waves Ship Positions

Asiatic Wave

Last reported at 2015-Mar-31 10:31 UTC. Time now 2015-Apr-01 09:29 UTC.
Position N 31°05' E 122°54'.

Length 662 m; draft 7.7 m.

Type: Ship (hazmat cat A). MMSI: 564211000.

Date/timePositionNaut miles runAvg speedWind from/ knotsBaromVisibWave heightAir tempDewpointWater temp
2015-Mar-31 10:31N 31°05' E 122°54'1616.1
2015-Mar-31 09:33N 31°05' E 122°36'1211.6
2015-Mar-31 08:33N 31°05' E 122°23'1312.8
2015-Mar-31 07:34N 31°11' E 122°09'1212.2
2015-Mar-31 06:33N 31°15' E 121°56'1312.8
2015-Mar-31 05:33N 31°20' E 121°42'1 1.3
2015-Mar-31 04:34N 31°20' E 121°40'0 0.0
2015-Mar-31 03:32N 31°20' E 121°40'0 0.1
2015-Mar-31 02:32N 31°20' E 121°40'0 0.1
2015-Mar-31 01:31N 31°20' E 121°40'0 0.1
2015-Mar-31 00:31N 31°20' E 121°40'0 0.1
2015-Mar-30 23:31N 31°20' E 121°40'0 0.0
2015-Mar-30 22:33N 31°20' E 121°40'0 0.0
2015-Mar-30 21:32N 31°20' E 121°40'0 0.1
2015-Mar-30 20:32N 31°20' E 121°40'0 0.0
2015-Mar-30 19:28N 31°20' E 121°40'0 0.0
2015-Mar-30 18:24N 31°20' E 121°40'0 0.1
2015-Mar-30 17:32N 31°20' E 121°40'0 0.1
2015-Mar-30 16:32N 31°20' E 121°40'1 0.7
2015-Mar-30 15:33N 31°20' E 121°41'2 2.2
2015-Mar-30 14:33N 31°18' E 121°43'8 7.9
2015-Mar-30 13:34N 31°12' E 121°49'1110.7
2015-Mar-30 12:33N 31°06' E 121°59'1212.3
2015-Mar-30 11:33N 31°03' E 122°13'19 4.5
2015-Mar-30 07:25N 31°03' E 122°35'0 0.0
2015-Mar-30 03:20N 31°03' E 122°35'0 0.0
2015-Mar-29 22:33N 31°03' E 122°35'0 0.0
2015-Mar-29 20:29N 31°03' E 122°35'0 0.0
2015-Mar-29 18:31N 31°03' E 122°35'0 0.1
2015-Mar-29 17:19N 31°03' E 122°35'0 0.0
2015-Mar-29 16:12N 31°03' E 122°35'0 0.1
2015-Mar-29 15:27N 31°03' E 122°35'0 0.1
2015-Mar-29 14:30N 31°03' E 122°35'0 0.0
2015-Mar-29 13:23N 31°03' E 122°35'0 0.0
2015-Mar-29 12:32N 31°03' E 122°35'0 0.1
2015-Mar-29 11:28N 31°03' E 122°35'0 0.1
2015-Mar-29 10:28N 31°03' E 122°35'0 0.0
2015-Mar-29 09:09N 31°03' E 122°35'0 0.0
2015-Mar-29 08:15N 31°03' E 122°35'0 0.1
2015-Mar-29 07:24N 31°03' E 122°35'0 0.0
2015-Mar-29 06:08N 31°03' E 122°35'0 0.0
2015-Mar-29 04:22N 31°03' E 122°35'0 0.0
2015-Mar-29 03:25N 31°03' E 122°35'0 0.0
2015-Mar-29 02:31N 31°03' E 122°35'0 0.1
2015-Mar-29 01:27N 31°03' E 122°35'0 0.0
2015-Mar-28 23:29N 31°03' E 122°35'0 0.0
2015-Mar-28 22:14N 31°03' E 122°35'0 0.0
2015-Mar-28 21:33N 31°03' E 122°35'2 2.0
2015-Mar-28 20:33N 31°03' E 122°38'1010.3
2015-Mar-28 19:33N 31°03' E 122°50'1716.7
2015-Mar-28 18:33N 31°09' E 123°08'1616.2
2015-Mar-28 17:33N 31°17' E 123°24'1514.5
2015-Mar-28 16:32N 31°23' E 123°40'38916.1
2015-Mar-27 16:23N 34°03' E 130°41'20610.3
2015-Mar-26 20:26N 34°34' E 134°48'1315.3
2015-Mar-26 19:34N 34°36' E 135°04'10 9.5
2015-Mar-26 18:33N 34°40' E 135°14'0 0.1
2015-Mar-26 17:31N 34°40' E 135°14'0 0.0
2015-Mar-26 16:30N 34°40' E 135°14'0 0.1
2015-Mar-26 15:24N 34°40' E 135°14'0 0.1
2015-Mar-26 14:29N 34°40' E 135°14'0 0.0
2015-Mar-26 13:29N 34°40' E 135°14'0 0.0
2015-Mar-26 12:22N 34°40' E 135°14'0 0.1
2015-Mar-26 11:32N 34°40' E 135°14'2 2.1
2015-Mar-26 10:34N 34°39' E 135°16'8 8.1
2015-Mar-26 09:33N 34°39' E 135°26'0 0.1
2015-Mar-26 08:33N 34°39' E 135°26'0 0.0
2015-Mar-26 07:27N 34°39' E 135°26'0 0.0
2015-Mar-26 06:33N 34°39' E 135°26'0 0.0
2015-Mar-26 05:29N 34°39' E 135°26'0 0.0
2015-Mar-26 04:30N 34°39' E 135°26'0 0.0
2015-Mar-26 03:33N 34°39' E 135°26'3 2.9
2015-Mar-26 02:33N 34°38' E 135°23'1211.8
2015-Mar-26 01:33N 34°29' E 135°13'1716.6
2015-Mar-26 00:33N 34°17' E 134°59'1815.9
2015-Mar-25 23:26N 33°59' E 134°56'65516.4
2015-Mar-24 07:33N 30°60' E 122°29'1515.4
2015-Mar-24 06:33N 31°03' E 122°11'1212.0
2015-Mar-24 05:33N 31°06' E 121°58'1211.8
2015-Mar-24 04:33N 31°14' E 121°47'1212.2
2015-Mar-24 03:33N 31°22' E 121°37'1 0.9
2015-Mar-24 02:33N 31°22' E 121°36'0 0.0
2015-Mar-24 01:33N 31°22' E 121°36'0 0.1
2015-Mar-24 00:33N 31°22' E 121°36'0 0.0
2015-Mar-23 23:32N 31°22' E 121°36'0 0.0
2015-Mar-23 22:33N 31°22' E 121°36'0 0.0
2015-Mar-23 21:32N 31°22' E 121°36'0 0.1
2015-Mar-23 20:32N 31°22' E 121°36'0 0.1
2015-Mar-23 19:32N 31°22' E 121°36'1 1.5
2015-Mar-23 18:34N 31°22' E 121°37'8 7.9
2015-Mar-23 17:34N 31°18' E 121°46'1010.4
2015-Mar-23 16:33N 31°15' E 121°57'1211.9
2015-Mar-23 15:33N 31°11' E 122°10'1212.2
2015-Mar-23 14:33N 31°06' E 122°23'8 8.2
2015-Mar-23 13:31N 31°06' E 122°33'7 7.1
2015-Mar-23 12:28N 31°03' E 122°41'2 1.7
2015-Mar-23 11:19N 31°01' E 122°41'0 0.1
2015-Mar-23 10:19N 31°01' E 122°41'0 0.0
2015-Mar-23 05:17N 31°01' E 122°41'0 0.0
2015-Mar-23 03:31N 31°01' E 122°41'0 0.0
2015-Mar-23 02:06N 31°01' E 122°41'0 0.0
2015-Mar-23 01:33N 31°01' E 122°41'6 5.8
2015-Mar-23 00:33N 30°57' E 122°45'1616.3
2015-Mar-22 23:33N 30°44' E 122°57'1615.8
2015-Mar-22 22:33N 30°28' E 123°02'1616.4
2015-Mar-22 21:33N 30°12' E 123°05'1716.7
2015-Mar-22 20:33N 29°56' E 123°08'3417.0
2015-Mar-22 18:33N 29°22' E 123°12'  
Track history (hours):
 
Tides and Currents Weather Stations Pressure Air Temp Water Temp Dewpoint Dewpoint Depression Visibility Wind Speed Wind Dir Waves Ship Positions

Asiatic Wave

Last reported at 2015-Mar-31 10:31 UTC. Time now 2015-Apr-01 09:29 UTC.
Position N 31°05' E 122°54'.

Length 662 m; draft 7.7 m.

Type: Ship (hazmat cat A). MMSI: 564211000.

Date/timePositionNaut miles runAvg speedWind from/ knotsBaromVisibWave heightAir tempDewpointWater temp
2015-Mar-31 10:31N 31°05' E 122°54'1616.1
2015-Mar-31 09:33N 31°05' E 122°36'1211.6
2015-Mar-31 08:33N 31°05' E 122°23'1312.8
2015-Mar-31 07:34N 31°11' E 122°09'1212.2
2015-Mar-31 06:33N 31°15' E 121°56'1312.8
2015-Mar-31 05:33N 31°20' E 121°42'1 1.3
2015-Mar-31 04:34N 31°20' E 121°40'0 0.0
2015-Mar-31 03:32N 31°20' E 121°40'0 0.1
2015-Mar-31 02:32N 31°20' E 121°40'0 0.1
2015-Mar-31 01:31N 31°20' E 121°40'0 0.1
2015-Mar-31 00:31N 31°20' E 121°40'0 0.1
2015-Mar-30 23:31N 31°20' E 121°40'0 0.0
2015-Mar-30 22:33N 31°20' E 121°40'0 0.0
2015-Mar-30 21:32N 31°20' E 121°40'0 0.1
2015-Mar-30 20:32N 31°20' E 121°40'0 0.0
2015-Mar-30 19:28N 31°20' E 121°40'0 0.0
2015-Mar-30 18:24N 31°20' E 121°40'0 0.1
2015-Mar-30 17:32N 31°20' E 121°40'0 0.1
2015-Mar-30 16:32N 31°20' E 121°40'1 0.7
2015-Mar-30 15:33N 31°20' E 121°41'2 2.2
2015-Mar-30 14:33N 31°18' E 121°43'8 7.9
2015-Mar-30 13:34N 31°12' E 121°49'1110.7
2015-Mar-30 12:33N 31°06' E 121°59'1212.3
2015-Mar-30 11:33N 31°03' E 122°13'19 4.5
2015-Mar-30 07:25N 31°03' E 122°35'0 0.0
2015-Mar-30 03:20N 31°03' E 122°35'0 0.0
2015-Mar-29 22:33N 31°03' E 122°35'0 0.0
2015-Mar-29 20:29N 31°03' E 122°35'0 0.0
2015-Mar-29 18:31N 31°03' E 122°35'0 0.1
2015-Mar-29 17:19N 31°03' E 122°35'0 0.0
2015-Mar-29 16:12N 31°03' E 122°35'0 0.1
2015-Mar-29 15:27N 31°03' E 122°35'0 0.1
2015-Mar-29 14:30N 31°03' E 122°35'0 0.0
2015-Mar-29 13:23N 31°03' E 122°35'0 0.0
2015-Mar-29 12:32N 31°03' E 122°35'0 0.1
2015-Mar-29 11:28N 31°03' E 122°35'0 0.1
2015-Mar-29 10:28N 31°03' E 122°35'0 0.0
2015-Mar-29 09:09N 31°03' E 122°35'0 0.0
2015-Mar-29 08:15N 31°03' E 122°35'0 0.1
2015-Mar-29 07:24N 31°03' E 122°35'0 0.0
2015-Mar-29 06:08N 31°03' E 122°35'0 0.0
2015-Mar-29 04:22N 31°03' E 122°35'0 0.0
2015-Mar-29 03:25N 31°03' E 122°35'0 0.0
2015-Mar-29 02:31N 31°03' E 122°35'0 0.1
2015-Mar-29 01:27N 31°03' E 122°35'0 0.0
2015-Mar-28 23:29N 31°03' E 122°35'0 0.0
2015-Mar-28 22:14N 31°03' E 122°35'0 0.0
2015-Mar-28 21:33N 31°03' E 122°35'2 2.0
2015-Mar-28 20:33N 31°03' E 122°38'1010.3
2015-Mar-28 19:33N 31°03' E 122°50'1716.7
2015-Mar-28 18:33N 31°09' E 123°08'1616.2
2015-Mar-28 17:33N 31°17' E 123°24'1514.5
2015-Mar-28 16:32N 31°23' E 123°40'38916.1
2015-Mar-27 16:23N 34°03' E 130°41'20610.3
2015-Mar-26 20:26N 34°34' E 134°48'1315.3
2015-Mar-26 19:34N 34°36' E 135°04'10 9.5
2015-Mar-26 18:33N 34°40' E 135°14'0 0.1
2015-Mar-26 17:31N 34°40' E 135°14'0 0.0
2015-Mar-26 16:30N 34°40' E 135°14'0 0.1
2015-Mar-26 15:24N 34°40' E 135°14'0 0.1
2015-Mar-26 14:29N 34°40' E 135°14'0 0.0
2015-Mar-26 13:29N 34°40' E 135°14'0 0.0
2015-Mar-26 12:22N 34°40' E 135°14'0 0.1
2015-Mar-26 11:32N 34°40' E 135°14'2 2.1
2015-Mar-26 10:34N 34°39' E 135°16'8 8.1
2015-Mar-26 09:33N 34°39' E 135°26'0 0.1
2015-Mar-26 08:33N 34°39' E 135°26'0 0.0
2015-Mar-26 07:27N 34°39' E 135°26'0 0.0
2015-Mar-26 06:33N 34°39' E 135°26'0 0.0
2015-Mar-26 05:29N 34°39' E 135°26'0 0.0
2015-Mar-26 04:30N 34°39' E 135°26'0 0.0
2015-Mar-26 03:33N 34°39' E 135°26'3 2.9
2015-Mar-26 02:33N 34°38' E 135°23'1211.8
2015-Mar-26 01:33N 34°29' E 135°13'1716.6
2015-Mar-26 00:33N 34°17' E 134°59'1815.9
2015-Mar-25 23:26N 33°59' E 134°56'65516.4
2015-Mar-24 07:33N 30°60' E 122°29'1515.4
2015-Mar-24 06:33N 31°03' E 122°11'1212.0
2015-Mar-24 05:33N 31°06' E 121°58'1211.8
2015-Mar-24 04:33N 31°14' E 121°47'1212.2
2015-Mar-24 03:33N 31°22' E 121°37'1 0.9
2015-Mar-24 02:33N 31°22' E 121°36'0 0.0
2015-Mar-24 01:33N 31°22' E 121°36'0 0.1
2015-Mar-24 00:33N 31°22' E 121°36'0 0.0
2015-Mar-23 23:32N 31°22' E 121°36'0 0.0
2015-Mar-23 22:33N 31°22' E 121°36'0 0.0
2015-Mar-23 21:32N 31°22' E 121°36'0 0.1
2015-Mar-23 20:32N 31°22' E 121°36'0 0.1
2015-Mar-23 19:32N 31°22' E 121°36'1 1.5
2015-Mar-23 18:34N 31°22' E 121°37'8 7.9
2015-Mar-23 17:34N 31°18' E 121°46'1010.4
2015-Mar-23 16:33N 31°15' E 121°57'1211.9
2015-Mar-23 15:33N 31°11' E 122°10'1212.2
2015-Mar-23 14:33N 31°06' E 122°23'8 8.2
2015-Mar-23 13:31N 31°06' E 122°33'7 7.1
2015-Mar-23 12:28N 31°03' E 122°41'2 1.7
2015-Mar-23 11:19N 31°01' E 122°41'0 0.1
2015-Mar-23 10:19N 31°01' E 122°41'0 0.0
2015-Mar-23 05:17N 31°01' E 122°41'0 0.0
2015-Mar-23 03:31N 31°01' E 122°41'0 0.0
2015-Mar-23 02:06N 31°01' E 122°41'0 0.0
2015-Mar-23 01:33N 31°01' E 122°41'6 5.8
2015-Mar-23 00:33N 30°57' E 122°45'1616.3
2015-Mar-22 23:33N 30°44' E 122°57'1615.8
2015-Mar-22 22:33N 30°28' E 123°02'1616.4
2015-Mar-22 21:33N 30°12' E 123°05'1716.7
2015-Mar-22 20:33N 29°56' E 123°08'3417.0
2015-Mar-22 18:33N 29°22' E 123°12'  

Dump ship's entire track history